Terminal Aerodrome Forecast
Issued by NWS

Home | Current Version | Previous Version | Text Only | Print | Product List | Glossary On
Versions: 1 2 3 4 5 6 7 8 9 10 11 12 13 14 15 16 17 18 19
000
FTUS46 KOTX 241019 AAA
TAFSFF
TAF AMD
KSFF 241019Z 2410/2506 22007KT P6SM VCSH BKN022 OVC080
     FM241300 19007KT P6SM VCSH OVC020
     FM241800 22006KT P6SM VCSH BKN040 OVC050=

USA.gov is the U.S. government's official web portal to all federal, state and local government web resources and services.